DucheSS Of Scandinavia — OUZI2 — position and weather

sailwx.info

Track history (hours):
 
Tides and Currents Weather Stations Pressure Air Temp Water Temp Dewpoint Dewpoint Depression Visibility Wind Speed Wind Dir Waves Ship Positions

DucheSS Of Scandinavia

Operator: DFDS A/S

Last reported at 2014-Oct-31 12:33 UTC. Time now 2014-Oct-31 12:57 UTC.
Position N 59°02' E 010°16'.

Length 134 m; draft 5.2 m.

Type: Passenger vessel. MMSI: 219002929.

Date/timePositionNaut miles runAvg speedWind from/ knotsBaromVisibWave heightAir tempDewpointWater temp
2014-Oct-31 12:33N 59°02' E 010°16'6 5.9
2014-Oct-31 11:34N 59°08' E 010°14'7 6.9
2014-Oct-31 10:33N 59°01' E 010°20'1515.1
2014-Oct-31 09:33N 59°02' E 010°49'1212.2
2014-Oct-31 08:33N 58°56' E 011°10'8 8.2
2014-Oct-31 07:34N 59°00' E 010°57'1716.5
2014-Oct-31 06:33N 59°00' E 010°24'9 9.0
2014-Oct-31 05:33N 59°08' E 010°14'1 1.4
2014-Oct-31 04:33N 59°06' E 010°14'0 0.0
2014-Oct-31 03:06N 59°06' E 010°14'0 0.0
2014-Oct-31 02:31N 59°06' E 010°14'0 0.0
2014-Oct-31 01:08N 59°06' E 010°14'0 0.0
2014-Oct-31 00:29N 59°06' E 010°14'0 0.0
2014-Oct-30 23:33N 59°06' E 010°14'0 0.0
2014-Oct-30 22:30N 59°06' E 010°14'0 0.0
2014-Oct-30 21:28N 59°06' E 010°14'0 0.0
2014-Oct-30 20:33N 59°06' E 010°14'0 0.0
2014-Oct-30 19:31N 59°06' E 010°14'0 0.0
2014-Oct-30 18:32N 59°06' E 010°14'1 1.5
2014-Oct-30 17:33N 59°08' E 010°14'1010.1
2014-Oct-30 16:33N 59°00' E 010°27'1515.3
2014-Oct-30 15:33N 59°00' E 010°57'8 7.8
2014-Oct-30 14:33N 58°56' E 011°10'1312.9
2014-Oct-30 13:33N 59°02' E 010°48'1615.8
2014-Oct-30 12:33N 59°01' E 010°17'6 6.4
2014-Oct-30 11:33N 59°08' E 010°14'7 6.6
2014-Oct-30 10:33N 59°01' E 010°18'1515.1
2014-Oct-30 09:33N 59°02' E 010°48'1312.6
2014-Oct-30 08:32N 58°56' E 011°10'9 8.8
2014-Oct-30 07:33N 59°00' E 010°56'1716.6
2014-Oct-30 06:33N 59°01' E 010°24'9 8.6
2014-Oct-30 05:34N 59°08' E 010°14'1 1.4
2014-Oct-30 04:33N 59°06' E 010°14'0 0.0
2014-Oct-30 03:33N 59°06' E 010°14'0 0.0
2014-Oct-30 02:33N 59°06' E 010°14'0 0.0
2014-Oct-30 01:33N 59°06' E 010°14'0 0.0
2014-Oct-30 00:33N 59°06' E 010°14'0 0.0
2014-Oct-29 23:33N 59°06' E 010°14'0 0.0
2014-Oct-29 22:33N 59°06' E 010°14'0 0.0
2014-Oct-29 21:33N 59°06' E 010°14'0 0.0
2014-Oct-29 20:33N 59°06' E 010°14'0 0.0
2014-Oct-29 19:31N 59°06' E 010°14'0 0.0
2014-Oct-29 18:33N 59°06' E 010°14'1 1.3
2014-Oct-29 17:31N 59°07' E 010°14'9 9.8
2014-Oct-29 16:33N 59°00' E 010°26'1515.2
2014-Oct-29 15:33N 59°01' E 010°55'9 8.8
2014-Oct-29 14:33N 58°56' E 011°10'1211.8
2014-Oct-29 13:33N 59°01' E 010°50'1616.1
2014-Oct-29 12:33N 59°01' E 010°19'7 7.4
2014-Oct-29 11:33N 59°08' E 010°14'7 7.2
2014-Oct-29 10:33N 59°01' E 010°18'1615.6
2014-Oct-29 09:33N 59°01' E 010°48'3 1.4
2014-Oct-29 07:33N 59°01' E 010°54'1515.4
2014-Oct-29 06:33N 59°01' E 010°24'8 1.4
2014-Oct-29 01:13N 59°06' E 010°14'0 0.0
2014-Oct-28 23:21N 59°06' E 010°14'0 0.0
2014-Oct-28 21:28N 59°06' E 010°14'0 0.0
2014-Oct-28 19:23N 59°06' E 010°14'0 0.2
2014-Oct-28 18:27N 59°06' E 010°14'1 0.6
2014-Oct-28 17:32N 59°06' E 010°14'1212.1
2014-Oct-28 16:33N 58°59' E 010°33'1313.3
2014-Oct-28 15:33N 58°60' E 010°59'5 4.1
2014-Oct-28 14:19N 58°56' E 011°06'1114.6
2014-Oct-28 13:34N 59°02' E 010°47'1515.2
2014-Oct-28 12:33N 59°01' E 010°18'7 6.9
2014-Oct-28 11:33N 59°08' E 010°14'9 9.2
2014-Oct-28 10:33N 58°60' E 010°24'1414.0
2014-Oct-28 09:33N 59°01' E 010°50'9 7.0
2014-Oct-28 08:12N 58°56' E 011°06'1015.1
2014-Oct-28 07:33N 59°01' E 010°50'1615.6
2014-Oct-28 06:33N 59°00' E 010°19'8 7.6
2014-Oct-28 05:33N 59°08' E 010°14'1 1.3
2014-Oct-28 04:28N 59°06' E 010°14'0 0.0
2014-Oct-27 18:33N 59°06' E 010°14'0 0.4
2014-Oct-27 17:32N 59°07' E 010°14'1111.1
2014-Oct-27 16:33N 58°60' E 010°31'1413.7
2014-Oct-27 15:33N 59°00' E 010°57'8 8.0
2014-Oct-27 14:32N 58°56' E 011°10'1313.6
2014-Oct-27 13:33N 59°02' E 010°47'1515.4
2014-Oct-27 12:33N 59°01' E 010°17'6 4.8
2014-Oct-27 11:19N 59°07' E 010°14'912.0
2014-Oct-27 10:33N 58°60' E 010°24'1312.5
2014-Oct-27 09:33N 59°02' E 010°48'1211.5
2014-Oct-27 08:28N 58°56' E 011°10'1010.6
2014-Oct-27 07:33N 59°01' E 010°54'1515.1
2014-Oct-27 06:33N 58°60' E 010°25'10 9.7
2014-Oct-27 05:33N 59°08' E 010°14'1 1.3
2014-Oct-27 04:29N 59°06' E 010°14'0 0.0
2014-Oct-27 02:32N 59°06' E 010°14'0 0.0
2014-Oct-27 00:31N 59°06' E 010°14'0 0.0
2014-Oct-26 23:22N 59°06' E 010°14'0 0.0
2014-Oct-26 22:17N 59°06' E 010°14'0 0.0
2014-Oct-26 21:24N 59°06' E 010°14'0 0.0
2014-Oct-26 20:30N 59°06' E 010°14'0 0.0
2014-Oct-26 19:33N 59°06' E 010°14'0 0.1
2014-Oct-26 18:31N 59°06' E 010°14'0 0.2
2014-Oct-26 17:32N 59°06' E 010°14'1111.1
2014-Oct-26 16:33N 59°00' E 010°32'1313.2
2014-Oct-26 15:33N 59°00' E 010°57'6 4.6
2014-Oct-26 14:17N 58°56' E 011°05'1115.1
2014-Oct-26 13:33N 59°02' E 010°47'1515.1
2014-Oct-26 12:33N 59°01' E 010°18'7 6.9
2014-Oct-26 11:32N 59°08' E 010°14'9 9.3
2014-Oct-26 10:33N 59°00' E 010°24'1313.0
2014-Oct-26 09:33N 59°02' E 010°49'1212.5
2014-Oct-26 08:34N 58°56' E 011°10'1010.1
2014-Oct-26 07:33N 59°01' E 010°53'1615.7
2014-Oct-26 06:33N 59°01' E 010°22'8 8.0
2014-Oct-26 05:33N 59°08' E 010°14'1 1.4
2014-Oct-26 04:33N 59°06' E 010°14'0 0.0
2014-Oct-26 03:17N 59°06' E 010°14'0 0.0
2014-Oct-26 01:30N 59°06' E 010°14'0 0.0
2014-Oct-26 00:30N 59°06' E 010°14'0 0.0
2014-Oct-25 23:25N 59°06' E 010°14'0 0.0
2014-Oct-25 22:32N 59°06' E 010°14'0 0.0
2014-Oct-25 21:15N 59°06' E 010°14'0 0.0
2014-Oct-25 20:27N 59°06' E 010°14'0 0.0
2014-Oct-25 19:22N 59°06' E 010°14'0 0.0
2014-Oct-25 18:22N 59°06' E 010°14'0 0.0
2014-Oct-25 17:32N 59°06' E 010°14'1 1.4
2014-Oct-25 16:33N 59°08' E 010°14'1010.0
2014-Oct-25 15:33N 59°01' E 010°28'1515.2
2014-Oct-25 14:33N 59°00' E 010°57'8 7.9
2014-Oct-25 13:33N 58°56' E 011°10'1313.3
2014-Oct-25 12:34N 59°02' E 010°47'1616.3
2014-Oct-25 11:33N 59°02' E 010°16'6 5.7
2014-Oct-25 10:33N 59°08' E 010°14'7 7.3
2014-Oct-25 09:33N 59°01' E 010°20'1615.5
2014-Oct-25 08:33N 59°01' E 010°51'1111.3
2014-Oct-25 07:33N 58°56' E 011°10'1111.2
2014-Oct-25 06:33N 59°01' E 010°51'1616.0
2014-Oct-25 05:33N 59°01' E 010°20'7 7.0
2014-Oct-25 04:33N 59°08' E 010°14'1 1.4
2014-Oct-25 03:33N 59°06' E 010°14'0 0.0
2014-Oct-25 02:33N 59°06' E 010°14'0 0.0
2014-Oct-25 01:33N 59°06' E 010°14'0 0.0
2014-Oct-25 00:33N 59°06' E 010°14'0 0.0
2014-Oct-24 23:33N 59°06' E 010°14'0 0.0
2014-Oct-24 22:33N 59°06' E 010°14'0 0.0
2014-Oct-24 21:33N 59°06' E 010°14'0 0.0
2014-Oct-24 20:33N 59°06' E 010°14'0 0.0
2014-Oct-24 19:33N 59°06' E 010°14'0 0.0
2014-Oct-24 18:33N 59°06' E 010°14'0 0.0
2014-Oct-24 17:32N 59°06' E 010°14'1 1.2
2014-Oct-24 16:32N 59°07' E 010°14'1111.0
2014-Oct-24 15:33N 59°00' E 010°30'1514.7
2014-Oct-24 14:34N 58°60' E 010°58'7 7.4
2014-Oct-24 13:33N 58°56' E 011°10'1212.5
2014-Oct-24 12:33N 59°02' E 010°49'1616.1
2014-Oct-24 11:33N 59°01' E 010°17'6 6.4
2014-Oct-24 10:33N 59°08' E 010°14'8 7.8
2014-Oct-24 09:33N 59°01' E 010°22'1515.0
2014-Oct-24 08:34N 59°01' E 010°51'1111.4
2014-Oct-24 07:33N 58°56' E 011°10'1212.2
2014-Oct-24 06:33N 59°02' E 010°49'1616.3
2014-Oct-24 05:33N 59°01' E 010°18'6 6.4
2014-Oct-24 04:33N 59°08' E 010°14'1 1.4
2014-Oct-24 03:33N 59°06' E 010°14'0 0.0
2014-Oct-24 02:31N 59°06' E 010°14'0 0.0
2014-Oct-24 01:20N 59°06' E 010°14'0 0.0
2014-Oct-24 00:32N 59°06' E 010°14'0 0.0
2014-Oct-23 23:33N 59°06' E 010°14'0 0.0
2014-Oct-23 22:22N 59°06' E 010°14'0 0.0
2014-Oct-23 21:28N 59°06' E 010°14'0 0.0
2014-Oct-23 20:33N 59°06' E 010°14'0 0.0
2014-Oct-23 19:33N 59°06' E 010°14'0 0.0
2014-Oct-23 18:33N 59°06' E 010°14'0 0.0
2014-Oct-23 17:33N 59°06' E 010°14'1 1.2
2014-Oct-23 16:33N 59°07' E 010°14'1110.8
2014-Oct-23 15:33N 59°00' E 010°30'1515.0
2014-Oct-23 14:33N 58°60' E 010°59'7 6.9
2014-Oct-23 13:33N 58°56' E 011°10'1212.4
2014-Oct-23 12:33N 59°01' E 010°49'1616.3
2014-Oct-23 11:33N 59°02' E 010°17'6 6.2
2014-Oct-23 10:33N 59°08' E 010°14'7 6.8
2014-Oct-23 09:33N 59°01' E 010°19'1414.3
2014-Oct-23 08:33N 59°02' E 010°47'1313.4
2014-Oct-23 07:33N 58°56' E 011°10'9 9.0
2014-Oct-23 06:34N 59°00' E 010°55'1615.9
2014-Oct-23 05:33N 59°01' E 010°24'9 8.8
2014-Oct-23 04:34N 59°08' E 010°14'1 1.4
2014-Oct-23 03:33N 59°06' E 010°14'0 0.0
2014-Oct-23 02:29N 59°06' E 010°14'0 0.0
2014-Oct-23 01:30N 59°06' E 010°14'0 0.0
2014-Oct-23 00:31N 59°06' E 010°14'0 0.0
2014-Oct-22 23:28N 59°06' E 010°14'0 0.0
2014-Oct-22 22:32N 59°06' E 010°14'0 0.0
2014-Oct-22 21:33N 59°06' E 010°14'0 0.0
2014-Oct-22 20:33N 59°06' E 010°14'0 0.0
2014-Oct-22 19:28N 59°06' E 010°14'0 0.0
2014-Oct-22 18:32N 59°06' E 010°14'0 0.0
2014-Oct-22 17:33N 59°06' E 010°14'1 1.4
2014-Oct-22 16:33N 59°08' E 010°14'10 9.7
2014-Oct-22 15:33N 59°01' E 010°26'1615.6
2014-Oct-22 14:34N 59°00' E 010°57'8 8.0
2014-Oct-22 13:32N 58°56' E 011°10'1313.2
2014-Oct-22 12:33N 59°02' E 010°47'1615.7
2014-Oct-22 11:34N 59°02' E 010°17'6 6.2
2014-Oct-22 10:33N 59°08' E 010°14'7 7.5
2014-Oct-22 09:33N 59°01' E 010°21'1414.2
2014-Oct-22 08:34N 59°02' E 010°49'1212.3
2014-Oct-22 07:33N 58°56' E 011°10'1010.3
2014-Oct-22 06:33N 59°01' E 010°52'1616.0
2014-Oct-22 05:33N 59°01' E 010°22'8 7.7
2014-Oct-22 04:33N 59°08' E 010°14'1 1.4
2014-Oct-22 03:33N 59°06' E 010°14'0 0.0
2014-Oct-22 02:31N 59°06' E 010°14'0 0.0
2014-Oct-22 01:32N 59°06' E 010°14'0 0.0
2014-Oct-22 00:32N 59°06' E 010°14'0 0.0
2014-Oct-21 23:33N 59°06' E 010°14'0 0.0
2014-Oct-21 22:34N 59°06' E 010°14'0 0.0
2014-Oct-21 21:31N 59°06' E 010°14'0 0.0
2014-Oct-21 20:26N 59°06' E 010°14'0 0.0
2014-Oct-21 19:33N 59°06' E 010°14'0 0.0
2014-Oct-21 18:33N 59°06' E 010°14'0 0.0
2014-Oct-21 17:34N 59°06' E 010°14'1 1.4
2014-Oct-21 16:33N 59°08' E 010°14'1010.1
2014-Oct-21 15:33N 59°00' E 010°28'1414.1
2014-Oct-21 14:33N 59°00' E 010°55'9 9.0
2014-Oct-21 13:33N 58°56' E 011°10'1312.9
2014-Oct-21 12:33N 59°02' E 010°48'  
Track history (hours):
 
Tides and Currents Weather Stations Pressure Air Temp Water Temp Dewpoint Dewpoint Depression Visibility Wind Speed Wind Dir Waves Ship Positions

DucheSS Of Scandinavia

Operator: DFDS A/S

Last reported at 2014-Oct-31 12:33 UTC. Time now 2014-Oct-31 12:57 UTC.
Position N 59°02' E 010°16'.

Length 134 m; draft 5.2 m.

Type: Passenger vessel. MMSI: 219002929.

Date/timePositionNaut miles runAvg speedWind from/ knotsBaromVisibWave heightAir tempDewpointWater temp
2014-Oct-31 12:33N 59°02' E 010°16'6 5.9
2014-Oct-31 11:34N 59°08' E 010°14'7 6.9
2014-Oct-31 10:33N 59°01' E 010°20'1515.1
2014-Oct-31 09:33N 59°02' E 010°49'1212.2
2014-Oct-31 08:33N 58°56' E 011°10'8 8.2
2014-Oct-31 07:34N 59°00' E 010°57'1716.5
2014-Oct-31 06:33N 59°00' E 010°24'9 9.0
2014-Oct-31 05:33N 59°08' E 010°14'1 1.4
2014-Oct-31 04:33N 59°06' E 010°14'0 0.0
2014-Oct-31 03:06N 59°06' E 010°14'0 0.0
2014-Oct-31 02:31N 59°06' E 010°14'0 0.0
2014-Oct-31 01:08N 59°06' E 010°14'0 0.0
2014-Oct-31 00:29N 59°06' E 010°14'0 0.0
2014-Oct-30 23:33N 59°06' E 010°14'0 0.0
2014-Oct-30 22:30N 59°06' E 010°14'0 0.0
2014-Oct-30 21:28N 59°06' E 010°14'0 0.0
2014-Oct-30 20:33N 59°06' E 010°14'0 0.0
2014-Oct-30 19:31N 59°06' E 010°14'0 0.0
2014-Oct-30 18:32N 59°06' E 010°14'1 1.5
2014-Oct-30 17:33N 59°08' E 010°14'1010.1
2014-Oct-30 16:33N 59°00' E 010°27'1515.3
2014-Oct-30 15:33N 59°00' E 010°57'8 7.8
2014-Oct-30 14:33N 58°56' E 011°10'1312.9
2014-Oct-30 13:33N 59°02' E 010°48'1615.8
2014-Oct-30 12:33N 59°01' E 010°17'6 6.4
2014-Oct-30 11:33N 59°08' E 010°14'7 6.6
2014-Oct-30 10:33N 59°01' E 010°18'1515.1
2014-Oct-30 09:33N 59°02' E 010°48'1312.6
2014-Oct-30 08:32N 58°56' E 011°10'9 8.8
2014-Oct-30 07:33N 59°00' E 010°56'1716.6
2014-Oct-30 06:33N 59°01' E 010°24'9 8.6
2014-Oct-30 05:34N 59°08' E 010°14'1 1.4
2014-Oct-30 04:33N 59°06' E 010°14'0 0.0
2014-Oct-30 03:33N 59°06' E 010°14'0 0.0
2014-Oct-30 02:33N 59°06' E 010°14'0 0.0
2014-Oct-30 01:33N 59°06' E 010°14'0 0.0
2014-Oct-30 00:33N 59°06' E 010°14'0 0.0
2014-Oct-29 23:33N 59°06' E 010°14'0 0.0
2014-Oct-29 22:33N 59°06' E 010°14'0 0.0
2014-Oct-29 21:33N 59°06' E 010°14'0 0.0
2014-Oct-29 20:33N 59°06' E 010°14'0 0.0
2014-Oct-29 19:31N 59°06' E 010°14'0 0.0
2014-Oct-29 18:33N 59°06' E 010°14'1 1.3
2014-Oct-29 17:31N 59°07' E 010°14'9 9.8
2014-Oct-29 16:33N 59°00' E 010°26'1515.2
2014-Oct-29 15:33N 59°01' E 010°55'9 8.8
2014-Oct-29 14:33N 58°56' E 011°10'1211.8
2014-Oct-29 13:33N 59°01' E 010°50'1616.1
2014-Oct-29 12:33N 59°01' E 010°19'7 7.4
2014-Oct-29 11:33N 59°08' E 010°14'7 7.2
2014-Oct-29 10:33N 59°01' E 010°18'1615.6
2014-Oct-29 09:33N 59°01' E 010°48'3 1.4
2014-Oct-29 07:33N 59°01' E 010°54'1515.4
2014-Oct-29 06:33N 59°01' E 010°24'8 1.4
2014-Oct-29 01:13N 59°06' E 010°14'0 0.0
2014-Oct-28 23:21N 59°06' E 010°14'0 0.0
2014-Oct-28 21:28N 59°06' E 010°14'0 0.0
2014-Oct-28 19:23N 59°06' E 010°14'0 0.2
2014-Oct-28 18:27N 59°06' E 010°14'1 0.6
2014-Oct-28 17:32N 59°06' E 010°14'1212.1
2014-Oct-28 16:33N 58°59' E 010°33'1313.3
2014-Oct-28 15:33N 58°60' E 010°59'5 4.1
2014-Oct-28 14:19N 58°56' E 011°06'1114.6
2014-Oct-28 13:34N 59°02' E 010°47'1515.2
2014-Oct-28 12:33N 59°01' E 010°18'7 6.9
2014-Oct-28 11:33N 59°08' E 010°14'9 9.2
2014-Oct-28 10:33N 58°60' E 010°24'1414.0
2014-Oct-28 09:33N 59°01' E 010°50'9 7.0
2014-Oct-28 08:12N 58°56' E 011°06'1015.1
2014-Oct-28 07:33N 59°01' E 010°50'1615.6
2014-Oct-28 06:33N 59°00' E 010°19'8 7.6
2014-Oct-28 05:33N 59°08' E 010°14'1 1.3
2014-Oct-28 04:28N 59°06' E 010°14'0 0.0
2014-Oct-27 18:33N 59°06' E 010°14'0 0.4
2014-Oct-27 17:32N 59°07' E 010°14'1111.1
2014-Oct-27 16:33N 58°60' E 010°31'1413.7
2014-Oct-27 15:33N 59°00' E 010°57'8 8.0
2014-Oct-27 14:32N 58°56' E 011°10'1313.6
2014-Oct-27 13:33N 59°02' E 010°47'1515.4
2014-Oct-27 12:33N 59°01' E 010°17'6 4.8
2014-Oct-27 11:19N 59°07' E 010°14'912.0
2014-Oct-27 10:33N 58°60' E 010°24'1312.5
2014-Oct-27 09:33N 59°02' E 010°48'1211.5
2014-Oct-27 08:28N 58°56' E 011°10'1010.6
2014-Oct-27 07:33N 59°01' E 010°54'1515.1
2014-Oct-27 06:33N 58°60' E 010°25'10 9.7
2014-Oct-27 05:33N 59°08' E 010°14'1 1.3
2014-Oct-27 04:29N 59°06' E 010°14'0 0.0
2014-Oct-27 02:32N 59°06' E 010°14'0 0.0
2014-Oct-27 00:31N 59°06' E 010°14'0 0.0
2014-Oct-26 23:22N 59°06' E 010°14'0 0.0
2014-Oct-26 22:17N 59°06' E 010°14'0 0.0
2014-Oct-26 21:24N 59°06' E 010°14'0 0.0
2014-Oct-26 20:30N 59°06' E 010°14'0 0.0
2014-Oct-26 19:33N 59°06' E 010°14'0 0.1
2014-Oct-26 18:31N 59°06' E 010°14'0 0.2
2014-Oct-26 17:32N 59°06' E 010°14'1111.1
2014-Oct-26 16:33N 59°00' E 010°32'1313.2
2014-Oct-26 15:33N 59°00' E 010°57'6 4.6
2014-Oct-26 14:17N 58°56' E 011°05'1115.1
2014-Oct-26 13:33N 59°02' E 010°47'1515.1
2014-Oct-26 12:33N 59°01' E 010°18'7 6.9
2014-Oct-26 11:32N 59°08' E 010°14'9 9.3
2014-Oct-26 10:33N 59°00' E 010°24'1313.0
2014-Oct-26 09:33N 59°02' E 010°49'1212.5
2014-Oct-26 08:34N 58°56' E 011°10'1010.1
2014-Oct-26 07:33N 59°01' E 010°53'1615.7
2014-Oct-26 06:33N 59°01' E 010°22'8 8.0
2014-Oct-26 05:33N 59°08' E 010°14'1 1.4
2014-Oct-26 04:33N 59°06' E 010°14'0 0.0
2014-Oct-26 03:17N 59°06' E 010°14'0 0.0
2014-Oct-26 01:30N 59°06' E 010°14'0 0.0
2014-Oct-26 00:30N 59°06' E 010°14'0 0.0
2014-Oct-25 23:25N 59°06' E 010°14'0 0.0
2014-Oct-25 22:32N 59°06' E 010°14'0 0.0
2014-Oct-25 21:15N 59°06' E 010°14'0 0.0
2014-Oct-25 20:27N 59°06' E 010°14'0 0.0
2014-Oct-25 19:22N 59°06' E 010°14'0 0.0
2014-Oct-25 18:22N 59°06' E 010°14'0 0.0
2014-Oct-25 17:32N 59°06' E 010°14'1 1.4
2014-Oct-25 16:33N 59°08' E 010°14'1010.0
2014-Oct-25 15:33N 59°01' E 010°28'1515.2
2014-Oct-25 14:33N 59°00' E 010°57'8 7.9
2014-Oct-25 13:33N 58°56' E 011°10'1313.3
2014-Oct-25 12:34N 59°02' E 010°47'1616.3
2014-Oct-25 11:33N 59°02' E 010°16'6 5.7
2014-Oct-25 10:33N 59°08' E 010°14'7 7.3
2014-Oct-25 09:33N 59°01' E 010°20'1615.5
2014-Oct-25 08:33N 59°01' E 010°51'1111.3
2014-Oct-25 07:33N 58°56' E 011°10'1111.2
2014-Oct-25 06:33N 59°01' E 010°51'1616.0
2014-Oct-25 05:33N 59°01' E 010°20'7 7.0
2014-Oct-25 04:33N 59°08' E 010°14'1 1.4
2014-Oct-25 03:33N 59°06' E 010°14'0 0.0
2014-Oct-25 02:33N 59°06' E 010°14'0 0.0
2014-Oct-25 01:33N 59°06' E 010°14'0 0.0
2014-Oct-25 00:33N 59°06' E 010°14'0 0.0
2014-Oct-24 23:33N 59°06' E 010°14'0 0.0
2014-Oct-24 22:33N 59°06' E 010°14'0 0.0
2014-Oct-24 21:33N 59°06' E 010°14'0 0.0
2014-Oct-24 20:33N 59°06' E 010°14'0 0.0
2014-Oct-24 19:33N 59°06' E 010°14'0 0.0
2014-Oct-24 18:33N 59°06' E 010°14'0 0.0
2014-Oct-24 17:32N 59°06' E 010°14'1 1.2
2014-Oct-24 16:32N 59°07' E 010°14'1111.0
2014-Oct-24 15:33N 59°00' E 010°30'1514.7
2014-Oct-24 14:34N 58°60' E 010°58'7 7.4
2014-Oct-24 13:33N 58°56' E 011°10'1212.5
2014-Oct-24 12:33N 59°02' E 010°49'1616.1
2014-Oct-24 11:33N 59°01' E 010°17'6 6.4
2014-Oct-24 10:33N 59°08' E 010°14'8 7.8
2014-Oct-24 09:33N 59°01' E 010°22'1515.0
2014-Oct-24 08:34N 59°01' E 010°51'1111.4
2014-Oct-24 07:33N 58°56' E 011°10'1212.2
2014-Oct-24 06:33N 59°02' E 010°49'1616.3
2014-Oct-24 05:33N 59°01' E 010°18'6 6.4
2014-Oct-24 04:33N 59°08' E 010°14'1 1.4
2014-Oct-24 03:33N 59°06' E 010°14'0 0.0
2014-Oct-24 02:31N 59°06' E 010°14'0 0.0
2014-Oct-24 01:20N 59°06' E 010°14'0 0.0
2014-Oct-24 00:32N 59°06' E 010°14'0 0.0
2014-Oct-23 23:33N 59°06' E 010°14'0 0.0
2014-Oct-23 22:22N 59°06' E 010°14'0 0.0
2014-Oct-23 21:28N 59°06' E 010°14'0 0.0
2014-Oct-23 20:33N 59°06' E 010°14'0 0.0
2014-Oct-23 19:33N 59°06' E 010°14'0 0.0
2014-Oct-23 18:33N 59°06' E 010°14'0 0.0
2014-Oct-23 17:33N 59°06' E 010°14'1 1.2
2014-Oct-23 16:33N 59°07' E 010°14'1110.8
2014-Oct-23 15:33N 59°00' E 010°30'1515.0
2014-Oct-23 14:33N 58°60' E 010°59'7 6.9
2014-Oct-23 13:33N 58°56' E 011°10'1212.4
2014-Oct-23 12:33N 59°01' E 010°49'1616.3
2014-Oct-23 11:33N 59°02' E 010°17'6 6.2
2014-Oct-23 10:33N 59°08' E 010°14'7 6.8
2014-Oct-23 09:33N 59°01' E 010°19'1414.3
2014-Oct-23 08:33N 59°02' E 010°47'1313.4
2014-Oct-23 07:33N 58°56' E 011°10'9 9.0
2014-Oct-23 06:34N 59°00' E 010°55'1615.9
2014-Oct-23 05:33N 59°01' E 010°24'9 8.8
2014-Oct-23 04:34N 59°08' E 010°14'1 1.4
2014-Oct-23 03:33N 59°06' E 010°14'0 0.0
2014-Oct-23 02:29N 59°06' E 010°14'0 0.0
2014-Oct-23 01:30N 59°06' E 010°14'0 0.0
2014-Oct-23 00:31N 59°06' E 010°14'0 0.0
2014-Oct-22 23:28N 59°06' E 010°14'0 0.0
2014-Oct-22 22:32N 59°06' E 010°14'0 0.0
2014-Oct-22 21:33N 59°06' E 010°14'0 0.0
2014-Oct-22 20:33N 59°06' E 010°14'0 0.0
2014-Oct-22 19:28N 59°06' E 010°14'0 0.0
2014-Oct-22 18:32N 59°06' E 010°14'0 0.0
2014-Oct-22 17:33N 59°06' E 010°14'1 1.4
2014-Oct-22 16:33N 59°08' E 010°14'10 9.7
2014-Oct-22 15:33N 59°01' E 010°26'1615.6
2014-Oct-22 14:34N 59°00' E 010°57'8 8.0
2014-Oct-22 13:32N 58°56' E 011°10'1313.2
2014-Oct-22 12:33N 59°02' E 010°47'1615.7
2014-Oct-22 11:34N 59°02' E 010°17'6 6.2
2014-Oct-22 10:33N 59°08' E 010°14'7 7.5
2014-Oct-22 09:33N 59°01' E 010°21'1414.2
2014-Oct-22 08:34N 59°02' E 010°49'1212.3
2014-Oct-22 07:33N 58°56' E 011°10'1010.3
2014-Oct-22 06:33N 59°01' E 010°52'1616.0
2014-Oct-22 05:33N 59°01' E 010°22'8 7.7
2014-Oct-22 04:33N 59°08' E 010°14'1 1.4
2014-Oct-22 03:33N 59°06' E 010°14'0 0.0
2014-Oct-22 02:31N 59°06' E 010°14'0 0.0
2014-Oct-22 01:32N 59°06' E 010°14'0 0.0
2014-Oct-22 00:32N 59°06' E 010°14'0 0.0
2014-Oct-21 23:33N 59°06' E 010°14'0 0.0
2014-Oct-21 22:34N 59°06' E 010°14'0 0.0
2014-Oct-21 21:31N 59°06' E 010°14'0 0.0
2014-Oct-21 20:26N 59°06' E 010°14'0 0.0
2014-Oct-21 19:33N 59°06' E 010°14'0 0.0
2014-Oct-21 18:33N 59°06' E 010°14'0 0.0
2014-Oct-21 17:34N 59°06' E 010°14'1 1.4
2014-Oct-21 16:33N 59°08' E 010°14'1010.1
2014-Oct-21 15:33N 59°00' E 010°28'1414.1
2014-Oct-21 14:33N 59°00' E 010°55'9 9.0
2014-Oct-21 13:33N 58°56' E 011°10'1312.9
2014-Oct-21 12:33N 59°02' E 010°48'  

Dump ship's entire track history